Decoded Metar for YPWR (WOOMERA in AUSTRALIA) (IATA:UMR) | Meteo·Mobile Aviation Weather
aviador You're here:

YPWR Decoded Metar

WOOMERA in AUSTRALIA
Report Time2019-10-21 08:00:00
UTC Time2019-10-21 08:41:39
Flight Rules vfr VFR
Wind050° at 07 kt
W.Decomp.*RWY 36: 4.9 kt HW 4.9 kt RCW
RWY 12: 1.8 kt HW 6.8 kt LCW
Visibility9999 m
Phenomena:N/A
Clouds:N/A
Expected CloudBase > 12,800 ft AGL from Temp-Dew spread
CeilingNone
Temp27°C (ISA +13)
Dew Point-5°C (12% RH)
Heat Index25.9°C
AAT21.9°C
QNH1022 hPa
Density Alt1,821 ft
Elevation548 ft
Report Wrong Elevation
Raw Report
METAR YPWR 210800Z AUTO 05007KT 9999 // NCD 27/M05 Q1022=

Extra information for YPWR:More info

Metar Taf Metar & Taf Last 4 Metars F.Rules Stats Wind Profile Meteogram Temp Stats Airport Information Weather charts Add Link Nearby VenuesMetar ALERT Operation Metar Decoded Social comments